Terminal Aerodrome Forecast
Issued by NWS

Home | Current Version | Previous Version | Text Only | Print | Product List | Glossary On
Versions: 1 2 3 4 5 6 7 8 9 10 11 12 13 14 15 16 17 18
000
FTUS43 KGRR 242300
TAFJXN
TAF
KJXN 242340Z 2500/2524 04003KT P6SM VCSH BKN150
     FM250500 10004KT P6SM -SHRA OVC040
     FM251100 10011KT P6SM BKN080=

USA.gov is the U.S. government's official web portal to all federal, state and local government web resources and services.